createdAt,value
2022-10-28T00:01:22.715Z,13.12
2022-10-28T00:03:53.569Z,13.10
2022-10-28T00:06:23.935Z,13.12
2022-10-28T00:08:52.180Z,13.15
2022-10-28T00:11:22.990Z,13.20
2022-10-28T00:13:54.080Z,13.27
2022-10-28T00:16:24.607Z,13.17
2022-10-28T00:18:54.088Z,13.16
2022-10-28T00:21:25.277Z,12.82
2022-10-28T00:23:52.976Z,12.95
2022-10-28T00:26:23.408Z,12.86
2022-10-28T00:28:56.719Z,12.88
2022-10-28T00:31:26.227Z,12.23
2022-10-28T00:33:54.380Z,12.71
2022-10-28T00:36:24.277Z,12.62
2022-10-28T00:38:54.049Z,12.86
2022-10-28T00:41:30.773Z,12.40
2022-10-28T00:44:01.820Z,12.71
2022-10-28T00:46:46.604Z,12.63
2022-10-28T00:49:21.342Z,12.77
2022-10-28T00:51:53.719Z,12.68
2022-10-28T00:54:22.740Z,12.79
2022-10-28T00:56:56.053Z,12.78
2022-10-28T00:59:35.114Z,12.73
2022-10-28T01:02:05.282Z,12.71
2022-10-28T01:04:33.079Z,12.82
2022-10-28T01:07:02.449Z,12.79
2022-10-28T01:09:30.274Z,12.73
2022-10-28T01:12:20.423Z,12.48
2022-10-28T01:15:16.215Z,12.69
2022-10-28T01:18:19.601Z,12.70
2022-10-28T01:20:56.527Z,12.38
2022-10-28T01:23:49.958Z,12.48
2022-10-28T01:26:20.531Z,12.38
2022-10-28T01:29:06.524Z,12.41
2022-10-28T01:32:25.527Z,12.50
2022-10-28T01:34:58.794Z,12.21
2022-10-28T01:37:47.647Z,12.15
2022-10-28T01:40:39.202Z,12.25
2022-10-28T01:43:22.193Z,12.24
2022-10-28T01:45:59.141Z,12.03
2022-10-28T01:48:45.413Z,11.88
2022-10-28T01:51:30.483Z,12.12
2022-10-28T01:54:02.505Z,11.87
2022-10-28T01:56:40.353Z,11.80
2022-10-28T01:59:13.364Z,11.83
2022-10-28T02:01:41.479Z,11.93
2022-10-28T02:04:09.532Z,11.97
2022-10-28T02:06:38.936Z,11.56
2022-10-28T02:09:19.853Z,11.90
2022-10-28T02:11:47.723Z,11.79
2022-10-28T02:14:27.263Z,11.52
2022-10-28T02:17:02.390Z,11.86
2022-10-28T02:19:39.646Z,11.58
2022-10-28T02:22:38.337Z,11.92
2022-10-28T02:25:20.536Z,12.09
2022-10-28T02:28:05.778Z,11.91
2022-10-28T02:30:44.438Z,11.59
2022-10-28T02:33:18.436Z,11.64
2022-10-28T02:35:57.674Z,11.74
2022-10-28T02:38:34.419Z,11.81
2022-10-28T02:41:30.169Z,11.95
2022-10-28T02:44:04.283Z,11.94
2022-10-28T02:46:35.669Z,12.03
2022-10-28T02:49:07.796Z,12.06
2022-10-28T02:51:40.052Z,11.77
2022-10-28T02:54:12.332Z,11.75
2022-10-28T02:56:47.054Z,11.65
2022-10-28T02:59:15.033Z,11.63
2022-10-28T03:01:42.654Z,11.68
2022-10-28T03:04:10.650Z,11.83
2022-10-28T03:06:38.509Z,11.62
2022-10-28T03:09:06.251Z,11.66
2022-10-28T03:11:34.153Z,11.63
2022-10-28T03:14:02.141Z,11.88
2022-10-28T03:16:29.696Z,11.94
2022-10-28T03:18:57.332Z,12.06
2022-10-28T03:21:25.295Z,11.85
2022-10-28T03:23:52.914Z,11.55
2022-10-28T03:26:20.500Z,11.67
2022-10-28T03:28:48.344Z,11.73
2022-10-28T03:31:16.977Z,11.38
2022-10-28T03:33:44.486Z,11.58
2022-10-28T03:36:12.365Z,11.55
2022-10-28T03:38:39.843Z,11.66
2022-10-28T03:41:07.374Z,11.54
2022-10-28T03:43:35.188Z,11.44
2022-10-28T03:46:02.739Z,11.46
2022-10-28T03:48:30.281Z,11.21
2022-10-28T03:50:58.100Z,11.35
2022-10-28T03:53:27.701Z,11.21
2022-10-28T03:56:00.415Z,11.28
2022-10-28T03:58:28.303Z,11.27
2022-10-28T04:00:56.924Z,11.56
2022-10-28T04:03:25.917Z,10.96
2022-10-28T04:05:53.825Z,11.08
2022-10-28T04:08:21.912Z,11.08
2022-10-28T04:10:49.771Z,11.38
2022-10-28T04:13:17.893Z,11.42
2022-10-28T04:15:45.441Z,11.23
2022-10-28T04:18:13.460Z,11.46
2022-10-28T04:20:41.119Z,11.50
2022-10-28T04:23:11.193Z,11.54
2022-10-28T04:25:38.973Z,11.78
2022-10-28T04:28:06.577Z,11.46
2022-10-28T04:30:34.247Z,11.64
2022-10-28T04:33:02.150Z,11.66
2022-10-28T04:35:29.684Z,11.74
2022-10-28T04:37:57.260Z,11.95
2022-10-28T04:40:25.587Z,11.97
2022-10-28T04:42:53.442Z,12.00
2022-10-28T04:45:21.161Z,11.94
2022-10-28T04:47:48.942Z,11.66
2022-10-28T04:50:16.527Z,11.75
2022-10-28T04:52:44.271Z,11.91
2022-10-28T04:55:12.131Z,11.78
2022-10-28T04:57:39.798Z,11.85
2022-10-28T05:00:07.870Z,11.70
2022-10-28T05:02:35.750Z,11.73
2022-10-28T05:05:04.665Z,11.82
2022-10-28T05:07:32.237Z,11.81
2022-10-28T05:10:00.049Z,11.81
2022-10-28T05:12:27.547Z,11.57
2022-10-28T05:14:55.039Z,11.67
2022-10-28T05:17:23.101Z,11.60
2022-10-28T05:19:50.721Z,11.62
2022-10-28T05:22:18.383Z,11.62
2022-10-28T05:24:46.244Z,11.23
2022-10-28T05:27:13.726Z,11.62
2022-10-28T05:29:41.272Z,11.67
2022-10-28T05:32:09.120Z,11.48
2022-10-28T05:34:36.740Z,11.26
2022-10-28T05:37:04.274Z,11.26
2022-10-28T05:39:32.285Z,11.44
2022-10-28T05:41:59.825Z,11.23
2022-10-28T05:44:27.327Z,11.42
2022-10-28T05:46:55.791Z,11.38
2022-10-28T05:49:23.397Z,11.41
2022-10-28T05:51:50.904Z,11.47
2022-10-28T05:54:18.931Z,11.47
2022-10-28T05:56:46.531Z,11.42
2022-10-28T05:59:14.170Z,11.39
2022-10-28T06:01:42.032Z,11.48
2022-10-28T06:04:10.006Z,11.35
2022-10-28T06:06:37.626Z,11.29
2022-10-28T06:09:05.164Z,11.32
2022-10-28T06:11:33.240Z,11.37
2022-10-28T06:14:00.837Z,11.41
2022-10-28T06:16:28.419Z,11.51
2022-10-28T06:18:56.939Z,11.59
2022-10-28T06:21:24.527Z,11.37
2022-10-28T06:23:52.142Z,11.46
2022-10-28T06:26:19.964Z,11.59
2022-10-28T06:28:47.498Z,11.28
2022-10-28T06:31:15.129Z,11.35
2022-10-28T06:33:42.961Z,11.60
2022-10-28T06:36:10.546Z,11.59
2022-10-28T06:38:41.021Z,11.51
2022-10-28T06:41:08.894Z,11.64
2022-10-28T06:43:36.389Z,11.57
2022-10-28T06:46:04.353Z,11.65
2022-10-28T06:48:33.804Z,11.60
2022-10-28T06:51:01.398Z,11.70
2022-10-28T06:53:29.002Z,11.74
2022-10-28T06:55:58.347Z,11.75
2022-10-28T06:58:26.338Z,11.71
2022-10-28T07:00:54.735Z,11.79
2022-10-28T07:03:22.758Z,11.88
2022-10-28T07:05:51.615Z,11.63
2022-10-28T07:08:19.650Z,11.94
2022-10-28T07:10:58.242Z,12.05
2022-10-28T07:13:26.763Z,12.05
2022-10-28T07:15:59.676Z,12.01
2022-10-28T07:18:29.754Z,12.18
2022-10-28T07:21:02.034Z,12.29
2022-10-28T07:23:32.530Z,12.25
2022-10-28T07:26:01.113Z,11.70
2022-10-28T07:28:29.008Z,12.09
2022-10-28T07:31:04.226Z,12.08
2022-10-28T07:33:32.146Z,12.44
2022-10-28T07:36:02.546Z,12.48
2022-10-28T07:38:30.071Z,12.38
2022-10-28T07:40:58.260Z,12.55
2022-10-28T07:43:25.752Z,12.56
2022-10-28T07:45:57.285Z,12.69
2022-10-28T07:48:25.385Z,12.56
2022-10-28T07:50:52.907Z,12.74
2022-10-28T07:53:22.620Z,12.57
2022-10-28T07:56:01.585Z,12.85
2022-10-28T07:58:30.066Z,12.88
2022-10-28T08:01:06.227Z,12.89
2022-10-28T08:03:38.743Z,12.82
2022-10-28T08:06:10.268Z,12.96
2022-10-28T08:08:39.613Z,13.22
2022-10-28T08:11:11.460Z,12.72
2022-10-28T08:13:40.277Z,12.99
2022-10-28T08:16:08.838Z,13.33
2022-10-28T08:18:36.907Z,13.25
2022-10-28T08:21:06.743Z,13.25
2022-10-28T08:23:34.718Z,13.40
2022-10-28T08:26:02.548Z,13.65
2022-10-28T08:28:30.612Z,13.69
2022-10-28T08:31:09.794Z,13.56
2022-10-28T08:33:47.002Z,13.31
2022-10-28T08:36:16.636Z,13.80
2022-10-28T08:38:46.163Z,13.27
2022-10-28T08:41:36.117Z,13.70
2022-10-28T08:44:25.674Z,13.95
2022-10-28T08:47:20.839Z,13.98
2022-10-28T08:49:54.807Z,14.17
2022-10-28T08:52:39.270Z,13.49
2022-10-28T08:55:14.499Z,14.20
2022-10-28T08:57:53.958Z,13.98
2022-10-28T09:00:24.193Z,14.05
2022-10-28T09:03:00.461Z,14.04
2022-10-28T09:05:28.922Z,14.04
2022-10-28T09:07:58.369Z,14.28
2022-10-28T09:11:06.341Z,14.46
2022-10-28T09:13:40.210Z,14.60
2022-10-28T09:16:40.538Z,13.47
2022-10-28T09:19:39.175Z,14.29
2022-10-28T09:22:52.366Z,14.06
2022-10-28T09:25:38.732Z,14.57
2022-10-28T09:28:26.241Z,14.35
2022-10-28T09:31:08.676Z,14.46
2022-10-28T09:34:05.334Z,14.51
2022-10-28T09:36:37.889Z,14.30
2022-10-28T09:39:11.161Z,14.04
2022-10-28T09:41:41.997Z,14.42
2022-10-28T09:44:18.544Z,14.40
2022-10-28T09:46:51.181Z,14.47
2022-10-28T09:49:25.070Z,14.52
2022-10-28T09:51:55.930Z,14.50
2022-10-28T09:54:36.218Z,14.62
2022-10-28T09:57:05.080Z,14.62
2022-10-28T09:59:34.173Z,14.54
2022-10-28T10:02:03.903Z,13.83
2022-10-28T10:04:32.039Z,14.44
2022-10-28T10:07:11.225Z,14.44
2022-10-28T10:09:39.587Z,14.58
2022-10-28T10:12:12.121Z,13.88
2022-10-28T10:14:45.890Z,14.32
2022-10-28T10:17:39.431Z,14.57
2022-10-28T10:20:10.308Z,14.69
2022-10-28T10:22:43.254Z,14.67
2022-10-28T10:25:20.197Z,14.49
2022-10-28T10:28:04.061Z,14.78
2022-10-28T10:30:59.983Z,14.43
2022-10-28T10:33:36.038Z,14.70
2022-10-28T10:36:14.332Z,14.27
2022-10-28T10:38:54.391Z,14.23
2022-10-28T10:41:37.260Z,14.63
2022-10-28T10:44:23.084Z,14.32
2022-10-28T10:47:04.982Z,14.45
2022-10-28T10:49:37.332Z,14.34
2022-10-28T10:52:09.711Z,14.59
2022-10-28T10:54:38.142Z,14.75
2022-10-28T10:57:16.322Z,14.56
2022-10-28T10:59:49.733Z,14.83
2022-10-28T11:02:27.987Z,14.61
2022-10-28T11:04:59.774Z,15.15
2022-10-28T11:07:28.934Z,14.66
2022-10-28T11:09:56.800Z,14.84
2022-10-28T11:12:32.325Z,15.29
2022-10-28T11:15:03.140Z,15.73
2022-10-28T11:17:35.078Z,15.70
2022-10-28T11:20:50.495Z,14.09
2022-10-28T11:23:40.722Z,14.76
2022-10-28T11:26:13.123Z,15.78
2022-10-28T11:29:00.983Z,15.56
2022-10-28T11:31:56.057Z,14.99
2022-10-28T11:34:24.171Z,14.52
2022-10-28T11:37:09.769Z,15.64
2022-10-28T11:39:45.999Z,15.75
2022-10-28T11:42:25.965Z,16.16
2022-10-28T11:44:56.758Z,16.28
2022-10-28T11:47:30.432Z,16.28
2022-10-28T11:50:22.781Z,16.36
2022-10-28T11:53:24.523Z,16.37
2022-10-28T11:56:00.710Z,16.71
2022-10-28T11:58:52.123Z,16.47
2022-10-28T12:01:39.949Z,16.86
2022-10-28T12:04:25.960Z,16.75
2022-10-28T12:07:12.463Z,17.03
2022-10-28T12:10:15.797Z,17.12
2022-10-28T12:12:51.232Z,17.32
2022-10-28T12:15:54.905Z,17.33
2022-10-28T12:18:25.640Z,17.18
2022-10-28T12:21:07.520Z,17.62
2022-10-28T12:23:39.144Z,17.46
2022-10-28T12:26:11.076Z,17.57
2022-10-28T12:28:47.020Z,17.47
2022-10-28T12:31:28.874Z,17.46
2022-10-28T12:34:01.137Z,17.69
2022-10-28T12:36:46.551Z,17.50
2022-10-28T12:39:28.029Z,17.59
2022-10-28T12:41:59.704Z,17.52
2022-10-28T12:44:29.497Z,17.58
2022-10-28T12:47:19.176Z,17.75
2022-10-28T12:50:08.380Z,17.64
2022-10-28T12:52:49.382Z,17.74
2022-10-28T12:55:32.293Z,17.89
2022-10-28T12:58:26.091Z,18.07
2022-10-28T13:01:02.973Z,18.05
2022-10-28T13:03:31.027Z,18.13
2022-10-28T13:06:29.666Z,18.00
2022-10-28T13:09:25.721Z,18.21
2022-10-28T13:11:58.812Z,18.15
2022-10-28T13:14:43.230Z,18.19
2022-10-28T13:17:48.055Z,18.00
2022-10-28T13:20:37.261Z,18.15
2022-10-28T13:23:10.613Z,17.85
2022-10-28T13:25:50.416Z,18.26
2022-10-28T13:28:21.649Z,18.13
2022-10-28T13:30:54.264Z,17.39
2022-10-28T13:33:27.496Z,17.47
2022-10-28T13:36:08.208Z,17.93
2022-10-28T13:38:36.623Z,17.85
2022-10-28T13:41:04.526Z,17.93
2022-10-28T13:43:50.665Z,17.86
2022-10-28T13:46:56.493Z,17.77
2022-10-28T13:49:35.667Z,17.80
2022-10-28T13:52:13.342Z,17.81
2022-10-28T13:54:44.003Z,17.81
2022-10-28T13:57:38.054Z,17.79
2022-10-28T14:00:17.756Z,17.57
2022-10-28T14:02:58.757Z,17.69
2022-10-28T14:05:47.097Z,17.60
2022-10-28T14:08:24.443Z,17.76
2022-10-28T14:11:07.914Z,17.56
2022-10-28T14:13:39.735Z,17.32
2022-10-28T14:16:14.588Z,17.20
2022-10-28T14:18:54.376Z,17.29
2022-10-28T14:21:23.400Z,17.24
2022-10-28T14:24:08.975Z,17.27
2022-10-28T14:27:18.201Z,17.04
2022-10-28T14:29:55.266Z,17.17
2022-10-28T14:32:31.744Z,17.01
2022-10-28T14:35:04.480Z,16.93
2022-10-28T14:37:58.206Z,16.95
2022-10-28T14:40:37.967Z,17.00
2022-10-28T14:43:33.421Z,17.08
2022-10-28T14:46:09.776Z,16.70
2022-10-28T14:48:46.071Z,16.69
2022-10-28T14:51:18.274Z,16.93
2022-10-28T14:53:47.463Z,16.77
2022-10-28T14:58:59.780Z,16.74
2022-10-28T15:01:49.850Z,16.67
2022-10-28T15:04:18.311Z,16.66
2022-10-28T15:06:48.172Z,16.84
2022-10-28T15:09:30.580Z,16.87
2022-10-28T15:12:05.864Z,16.68
2022-10-28T15:14:40.506Z,16.77
2022-10-28T15:17:17.395Z,16.58
2022-10-28T15:19:47.642Z,16.55
2022-10-28T15:22:33.300Z,16.54
2022-10-28T15:25:04.550Z,16.56
2022-10-28T15:27:36.083Z,16.57
2022-10-28T15:30:25.352Z,16.51
2022-10-28T15:32:55.033Z,16.56
2022-10-28T15:35:28.248Z,16.43
2022-10-28T15:38:00.120Z,16.27
2022-10-28T15:40:35.436Z,16.33
2022-10-28T15:43:17.392Z,16.22
2022-10-28T15:45:46.050Z,16.26
2022-10-28T15:48:23.490Z,16.38
2022-10-28T15:51:12.950Z,16.38
2022-10-28T15:53:42.970Z,16.30
2022-10-28T15:56:18.508Z,16.25
2022-10-28T15:58:50.373Z,16.40
2022-10-28T16:01:58.634Z,16.20
2022-10-28T16:04:26.639Z,16.31
2022-10-28T16:06:57.217Z,16.15
2022-10-28T16:09:34.647Z,16.23
2022-10-28T16:12:12.720Z,16.27
2022-10-28T16:14:42.026Z,16.20
2022-10-28T16:17:18.967Z,16.20
2022-10-28T16:19:53.388Z,16.30
2022-10-28T16:22:23.187Z,16.17
2022-10-28T16:24:53.215Z,16.11
2022-10-28T16:27:27.435Z,15.96
2022-10-28T16:29:56.040Z,16.05
2022-10-28T16:32:30.817Z,16.11
2022-10-28T16:35:00.381Z,16.07
2022-10-28T16:37:30.967Z,16.27
2022-10-28T16:39:58.954Z,16.26
2022-10-28T16:42:27.273Z,16.14
2022-10-28T16:44:55.258Z,16.05
2022-10-28T16:47:29.123Z,16.24
2022-10-28T16:49:57.796Z,16.14
2022-10-28T16:52:28.716Z,16.17
2022-10-28T16:54:57.145Z,16.15
2022-10-28T16:57:25.859Z,16.35
2022-10-28T16:59:54.122Z,16.46
2022-10-28T17:02:33.158Z,16.18
2022-10-28T17:05:04.967Z,16.07
2022-10-28T17:07:32.737Z,16.02
2022-10-28T17:10:00.486Z,16.10
2022-10-28T17:12:28.584Z,16.06
2022-10-28T17:14:56.323Z,15.99
2022-10-28T17:17:27.058Z,16.08
2022-10-28T17:19:57.471Z,16.03
2022-10-28T17:22:25.839Z,15.95
2022-10-28T17:24:54.579Z,15.94
2022-10-28T17:27:22.547Z,16.15
2022-10-28T17:29:50.209Z,16.04
2022-10-28T17:32:17.877Z,16.01
2022-10-28T17:34:45.822Z,16.00
2022-10-28T17:37:13.483Z,15.81
2022-10-28T17:39:42.407Z,15.84
2022-10-28T17:42:10.581Z,15.89
2022-10-28T17:44:38.494Z,15.88
2022-10-28T17:47:06.206Z,15.86
2022-10-28T17:49:36.478Z,15.89
2022-10-28T17:52:04.100Z,15.86
2022-10-28T17:54:31.794Z,15.81
2022-10-28T17:56:59.803Z,15.92
2022-10-28T17:59:27.308Z,15.83
2022-10-28T18:01:55.111Z,15.72
2022-10-28T18:04:30.309Z,15.95
2022-10-28T18:06:58.282Z,15.91
2022-10-28T18:09:28.294Z,15.69
2022-10-28T18:11:56.159Z,15.78
2022-10-28T18:14:23.947Z,15.76
2022-10-28T18:16:51.913Z,15.93
2022-10-28T18:19:20.803Z,15.93
2022-10-28T18:21:48.748Z,15.70
2022-10-28T18:24:18.524Z,15.75
2022-10-28T18:26:47.306Z,15.72
2022-10-28T18:29:15.149Z,15.61
2022-10-28T18:31:44.397Z,15.65
2022-10-28T18:34:12.371Z,15.77
2022-10-28T18:36:39.927Z,15.72
2022-10-28T18:39:08.251Z,15.50
2022-10-28T18:41:42.886Z,15.59
2022-10-28T18:44:14.103Z,15.56
2022-10-28T18:46:42.223Z,15.61
2022-10-28T18:49:09.977Z,15.62
2022-10-28T18:51:38.146Z,15.59
2022-10-28T18:54:05.866Z,15.42
2022-10-28T18:56:34.407Z,15.57
2022-10-28T18:59:04.644Z,15.37
2022-10-28T19:01:33.533Z,15.26
2022-10-28T19:04:04.222Z,15.32
2022-10-28T19:06:33.541Z,15.44
2022-10-28T19:09:04.062Z,15.53
2022-10-28T19:11:33.228Z,15.37
2022-10-28T19:14:03.372Z,15.38
2022-10-28T19:16:33.575Z,15.42
2022-10-28T19:19:04.394Z,15.56
2022-10-28T19:21:32.821Z,15.54
2022-10-28T19:24:00.734Z,15.68
2022-10-28T19:26:30.328Z,15.45
2022-10-28T19:28:58.267Z,15.40
2022-10-28T19:31:27.022Z,15.45
2022-10-28T19:33:55.551Z,15.37
2022-10-28T19:36:28.145Z,15.27
2022-10-28T19:38:57.230Z,15.34
2022-10-28T19:41:30.073Z,15.45
2022-10-28T19:44:00.717Z,15.42
2022-10-28T19:46:30.625Z,15.41
2022-10-28T19:49:00.180Z,15.42
2022-10-28T19:51:30.343Z,15.45
2022-10-28T19:54:04.829Z,15.33
2022-10-28T19:56:34.632Z,15.26
2022-10-28T19:59:04.338Z,15.34
2022-10-28T20:01:38.052Z,15.32
2022-10-28T20:04:06.826Z,15.32
2022-10-28T20:06:37.550Z,15.33
2022-10-28T20:09:05.450Z,15.41
2022-10-28T20:11:37.531Z,15.20
2022-10-28T20:14:11.643Z,15.40
2022-10-28T20:16:42.658Z,15.31
2022-10-28T20:19:10.928Z,15.27
2022-10-28T20:21:39.102Z,15.39
2022-10-28T20:24:07.855Z,15.40
2022-10-28T20:26:37.153Z,15.43
2022-10-28T20:29:06.918Z,15.32
2022-10-28T20:31:35.729Z,15.29
2022-10-28T20:34:04.325Z,15.19
2022-10-28T20:36:37.269Z,15.18
2022-10-28T20:39:17.006Z,15.26
2022-10-28T20:41:46.393Z,15.19
2022-10-28T20:44:14.716Z,15.07
2022-10-28T20:46:42.555Z,15.14
2022-10-28T20:49:10.646Z,15.33
2022-10-28T20:51:38.674Z,15.09
2022-10-28T20:54:06.789Z,15.33
2022-10-28T20:56:37.181Z,15.40
2022-10-28T20:59:05.865Z,15.30
2022-10-28T21:01:36.140Z,15.17
2022-10-28T21:04:10.137Z,15.16
2022-10-28T21:06:39.055Z,15.12
2022-10-28T21:09:08.827Z,15.23
2022-10-28T21:11:36.426Z,15.22
2022-10-28T21:14:04.280Z,15.28
2022-10-28T21:16:32.243Z,15.15
2022-10-28T21:19:00.139Z,15.04
2022-10-28T21:21:28.846Z,15.13
2022-10-28T21:23:56.484Z,15.16
2022-10-28T21:26:24.166Z,15.13
2022-10-28T21:28:53.223Z,15.06
2022-10-28T21:31:21.649Z,15.24
2022-10-28T21:36:22.844Z,15.00
2022-10-28T21:38:55.445Z,15.11
2022-10-28T21:41:24.517Z,14.86
2022-10-28T21:43:53.666Z,14.93
2022-10-28T21:46:24.807Z,15.15
2022-10-28T21:48:53.565Z,14.99
2022-10-28T21:51:21.178Z,14.69
2022-10-28T21:53:48.655Z,14.84
2022-10-28T21:56:19.316Z,14.96
2022-10-28T21:58:49.383Z,14.86
2022-10-28T22:01:23.377Z,14.96
2022-10-28T22:03:52.290Z,15.06
2022-10-28T22:06:28.859Z,14.66
2022-10-28T22:08:59.402Z,14.75
2022-10-28T22:11:27.234Z,14.94
2022-10-28T22:14:00.040Z,14.79
2022-10-28T22:16:29.682Z,14.97
2022-10-28T22:18:59.198Z,14.80
2022-10-28T22:21:29.962Z,14.95
2022-10-28T22:23:57.920Z,14.86
2022-10-28T22:26:28.629Z,14.97
2022-10-28T22:28:57.052Z,14.97
2022-10-28T22:31:28.214Z,14.96
2022-10-28T22:33:57.057Z,14.82
2022-10-28T22:36:27.136Z,14.96
2022-10-28T22:38:55.291Z,14.87
2022-10-28T22:41:24.302Z,15.00
2022-10-28T22:43:55.341Z,14.89
2022-10-28T22:46:26.181Z,14.95
2022-10-28T22:48:54.078Z,14.88
2022-10-28T22:51:22.477Z,14.79
2022-10-28T22:53:50.471Z,14.97
2022-10-28T22:56:21.235Z,14.92
2022-10-28T22:58:53.852Z,14.99
2022-10-28T23:01:22.990Z,14.93
2022-10-28T23:03:54.830Z,14.82
2022-10-28T23:06:25.912Z,14.90
2022-10-28T23:08:54.653Z,14.77
2022-10-28T23:11:23.777Z,14.86
2022-10-28T23:13:53.036Z,14.82
2022-10-28T23:16:21.881Z,14.95
2022-10-28T23:18:52.891Z,14.76
2022-10-28T23:21:25.740Z,14.85
2022-10-28T23:24:00.586Z,14.66
2022-10-28T23:26:29.615Z,14.77
2022-10-28T23:28:59.890Z,14.80
2022-10-28T23:31:28.392Z,14.84
2022-10-28T23:33:56.295Z,14.91
2022-10-28T23:36:24.164Z,14.92
2022-10-28T23:38:52.574Z,14.77
2022-10-28T23:41:21.067Z,14.75
2022-10-28T23:43:49.558Z,14.71
2022-10-28T23:46:18.134Z,14.92
2022-10-28T23:48:45.963Z,14.92
2022-10-28T23:51:14.246Z,14.86
2022-10-28T23:53:41.807Z,14.92
2022-10-28T23:56:09.407Z,15.00
2022-10-28T23:58:38.044Z,15.08
